createdAt,value
2023-04-18T00:00:12.370Z,34.58
2023-04-18T00:02:40.109Z,26.45
2023-04-18T00:05:07.973Z,32.88
2023-04-18T00:07:37.956Z,34.80
2023-04-18T00:10:06.137Z,29.90
2023-04-18T00:12:34.408Z,28.50
2023-04-18T00:15:04.437Z,27.05
2023-04-18T00:17:31.927Z,24.98
2023-04-18T00:19:59.007Z,30.15
2023-04-18T00:22:26.059Z,21.50
2023-04-18T00:24:52.989Z,26.38
2023-04-18T00:27:20.542Z,28.20
2023-04-18T00:29:48.200Z,30.60
2023-04-18T00:32:18.102Z,26.73
2023-04-18T00:34:45.241Z,20.65
2023-04-18T00:37:13.008Z,31.15
2023-04-18T00:39:42.153Z,31.60
2023-04-18T00:42:10.328Z,24.42
2023-04-18T00:44:37.273Z,23.45
2023-04-18T00:47:04.281Z,22.80
2023-04-18T00:49:35.833Z,22.05
2023-04-18T00:52:02.839Z,23.45
2023-04-18T00:54:30.166Z,26.95
2023-04-18T00:56:57.165Z,23.38
2023-04-18T00:59:27.117Z,19.20
2023-04-18T01:01:54.816Z,24.52
2023-04-18T01:04:22.414Z,28.17
2023-04-18T01:06:51.335Z,25.65
2023-04-18T01:09:20.106Z,19.65
2023-04-18T01:11:47.026Z,20.05
2023-04-18T01:14:16.472Z,24.02
2023-04-18T01:16:44.115Z,19.60
2023-04-18T01:19:11.519Z,20.23
2023-04-18T01:21:43.880Z,23.65
2023-04-18T01:24:16.338Z,22.13
2023-04-18T01:26:47.514Z,26.02
2023-04-18T01:29:14.455Z,18.73
2023-04-18T01:31:41.596Z,20.05
2023-04-18T01:34:08.884Z,23.80
2023-04-18T01:36:37.199Z,21.42
2023-04-18T01:39:04.247Z,18.73
2023-04-18T01:41:33.154Z,20.92
2023-04-18T01:44:00.558Z,25.23
2023-04-18T01:46:27.849Z,21.40
2023-04-18T01:48:55.263Z,22.52
2023-04-18T01:51:22.601Z,17.25
2023-04-18T01:53:52.776Z,18.35
2023-04-18T01:56:20.078Z,19.08
2023-04-18T01:58:48.635Z,19.85
2023-04-18T02:01:15.912Z,18.10
2023-04-18T02:03:43.198Z,19.75
2023-04-18T02:06:10.703Z,20.48
2023-04-18T02:08:37.677Z,17.40
2023-04-18T02:11:05.117Z,19.65
2023-04-18T02:13:34.777Z,15.65
2023-04-18T02:16:12.934Z,17.08
2023-04-18T02:18:43.617Z,17.55
2023-04-18T02:21:11.286Z,18.65
2023-04-18T02:23:38.214Z,17.48
2023-04-18T02:26:05.339Z,18.45
2023-04-18T02:28:33.033Z,19.92
2023-04-18T02:31:03.483Z,17.15
2023-04-18T02:33:31.777Z,16.67
2023-04-18T02:35:58.663Z,21.83
2023-04-18T02:38:25.675Z,14.80
2023-04-18T02:40:52.584Z,21.17
2023-04-18T02:43:20.898Z,16.45
2023-04-18T02:45:47.903Z,16.33
2023-04-18T02:48:15.037Z,17.08
2023-04-18T02:50:43.356Z,15.68
2023-04-18T02:53:10.481Z,16.77
2023-04-18T02:55:55.918Z,22.20
2023-04-18T02:58:28.330Z,14.60
2023-04-18T03:01:34.561Z,15.10
2023-04-18T03:04:09.392Z,15.30
2023-04-18T03:06:56.180Z,14.43
2023-04-18T03:09:23.613Z,20.52
2023-04-18T03:11:56.109Z,19.73
2023-04-18T03:14:26.636Z,20.80
2023-04-18T03:16:56.070Z,19.40
2023-04-18T03:19:27.765Z,14.40
2023-04-18T03:21:57.962Z,17.42
2023-04-18T03:24:25.011Z,17.45
2023-04-18T03:26:59.771Z,13.55
2023-04-18T03:29:26.998Z,17.23
2023-04-18T03:31:56.526Z,17.83
2023-04-18T03:34:23.613Z,14.77
2023-04-18T03:36:51.049Z,15.50
2023-04-18T03:39:19.421Z,14.00
2023-04-18T03:41:49.805Z,15.40
2023-04-18T03:44:17.561Z,14.85
2023-04-18T03:46:45.764Z,19.95
2023-04-18T03:49:12.840Z,17.35
2023-04-18T03:51:47.267Z,16.25
2023-04-18T03:54:14.715Z,18.50
2023-04-18T03:56:44.157Z,14.88
2023-04-18T03:59:12.314Z,17.02
2023-04-18T04:01:41.397Z,19.92
2023-04-18T04:04:09.425Z,15.77
2023-04-18T04:06:36.663Z,13.10
2023-04-18T04:09:03.921Z,14.38
2023-04-18T04:11:30.906Z,15.75
2023-04-18T04:13:59.640Z,18.95
2023-04-18T04:16:33.585Z,16.15
2023-04-18T04:19:01.035Z,17.70
2023-04-18T04:21:35.950Z,10.77
2023-04-18T04:24:03.600Z,15.02
2023-04-18T04:26:36.038Z,21.25
2023-04-18T04:29:10.969Z,16.00
2023-04-18T04:31:39.443Z,15.75
2023-04-18T04:34:07.063Z,18.05
2023-04-18T04:36:34.878Z,18.58
2023-04-18T04:39:05.362Z,15.57
2023-04-18T04:41:42.932Z,13.68
2023-04-18T04:44:12.685Z,20.77
2023-04-18T04:46:40.414Z,12.90
2023-04-18T04:49:14.453Z,17.40
2023-04-18T04:51:43.031Z,14.52
2023-04-18T04:54:10.861Z,14.88
2023-04-18T04:56:38.281Z,19.65
2023-04-18T04:59:06.012Z,18.20
2023-04-18T05:01:41.592Z,15.60
2023-04-18T05:04:08.753Z,15.10
2023-04-18T05:06:35.906Z,13.02
2023-04-18T05:09:02.823Z,17.83
2023-04-18T05:11:32.495Z,18.95
2023-04-18T05:14:02.422Z,14.10
2023-04-18T05:16:29.629Z,17.00
2023-04-18T05:18:57.980Z,14.10
2023-04-18T05:21:26.155Z,15.82
2023-04-18T05:23:53.232Z,17.85
2023-04-18T05:26:21.127Z,16.23
2023-04-18T05:28:48.232Z,17.48
2023-04-18T05:31:15.272Z,12.82
2023-04-18T05:33:42.341Z,17.63
2023-04-18T05:36:10.826Z,20.05
2023-04-18T05:38:37.770Z,14.60
2023-04-18T05:41:04.902Z,16.85
2023-04-18T05:43:32.014Z,15.93
2023-04-18T05:45:59.151Z,17.10
2023-04-18T05:48:26.230Z,14.75
2023-04-18T05:50:53.131Z,19.30
2023-04-18T05:53:21.496Z,19.50
2023-04-18T05:55:48.963Z,16.00
2023-04-18T05:58:16.079Z,12.80
2023-04-18T06:00:44.292Z,15.75
2023-04-18T06:03:11.800Z,13.77
2023-04-18T06:05:41.020Z,15.43
2023-04-18T06:08:08.154Z,12.93
2023-04-18T06:10:38.964Z,15.05
2023-04-18T06:13:06.216Z,13.35
2023-04-18T06:15:33.813Z,17.98
2023-04-18T06:18:01.071Z,11.48
2023-04-18T06:20:28.178Z,11.65
2023-04-18T06:22:55.284Z,14.50
2023-04-18T06:25:22.636Z,13.18
2023-04-18T06:27:50.925Z,10.25
2023-04-18T06:30:21.878Z,12.35
2023-04-18T06:32:49.433Z,13.13
2023-04-18T06:35:16.861Z,12.57
2023-04-18T06:37:44.982Z,10.93
2023-04-18T06:40:12.756Z,11.50
2023-04-18T06:42:39.737Z,11.07
2023-04-18T06:45:10.760Z,10.90
2023-04-18T06:47:37.814Z,10.13
2023-04-18T06:50:06.157Z,13.43
2023-04-18T06:52:33.320Z,12.98
2023-04-18T06:55:00.228Z,10.55
2023-04-18T06:57:27.325Z,12.10
2023-04-18T06:59:54.263Z,13.10
2023-04-18T07:02:22.653Z,13.18
2023-04-18T07:04:50.204Z,11.13
2023-04-18T07:07:17.336Z,16.50
2023-04-18T07:09:44.237Z,19.63
2023-04-18T07:12:11.167Z,15.80
2023-04-18T07:14:38.758Z,11.63
2023-04-18T07:17:05.836Z,13.13
2023-04-18T07:19:34.201Z,16.95
2023-04-18T07:22:01.334Z,15.77
2023-04-18T07:24:28.629Z,17.95
2023-04-18T07:26:55.616Z,15.05
2023-04-18T07:29:22.538Z,19.85
2023-04-18T07:31:49.875Z,13.88
2023-04-18T07:34:17.481Z,12.15
2023-04-18T07:36:45.878Z,11.27
2023-04-18T07:39:12.813Z,13.60
2023-04-18T07:41:39.835Z,12.20
2023-04-18T07:44:07.097Z,12.80
2023-04-18T07:46:34.171Z,10.82
2023-04-18T07:49:02.449Z,11.07
2023-04-18T07:51:31.851Z,12.52
2023-04-18T07:54:00.445Z,11.68
2023-04-18T07:56:28.847Z,12.77
2023-04-18T07:58:55.869Z,13.38
2023-04-18T08:01:24.761Z,10.27
2023-04-18T08:03:53.609Z,10.75
2023-04-18T08:06:21.486Z,9.80
2023-04-18T08:08:48.500Z,11.90
2023-04-18T08:11:16.866Z,10.20
2023-04-18T08:13:44.198Z,11.20
2023-04-18T08:16:11.158Z,9.02
2023-04-18T08:18:38.142Z,9.27
2023-04-18T08:21:05.716Z,11.07
2023-04-18T08:23:32.624Z,9.38
2023-04-18T08:25:59.586Z,9.77
2023-04-18T08:28:27.853Z,9.85
2023-04-18T08:30:56.505Z,12.27
2023-04-18T08:33:24.532Z,10.73
2023-04-18T08:35:51.894Z,13.70
2023-04-18T08:38:19.457Z,14.02
2023-04-18T08:40:47.214Z,8.55
2023-04-18T08:43:15.714Z,11.45
2023-04-18T08:45:44.847Z,12.23
2023-04-18T08:48:13.182Z,10.95
2023-04-18T08:50:40.739Z,11.10
2023-04-18T08:53:08.235Z,11.85
2023-04-18T08:55:35.809Z,10.05
2023-04-18T08:58:03.139Z,14.13
2023-04-18T09:00:30.841Z,12.38
2023-04-18T09:02:59.464Z,12.38
2023-04-18T09:05:27.681Z,12.60
2023-04-18T09:07:56.284Z,12.63
2023-04-18T09:10:29.016Z,11.70
2023-04-18T09:15:27.266Z,12.27
2023-04-18T09:17:56.497Z,27.15
2023-04-18T09:20:36.029Z,19.15
2023-04-18T09:23:04.627Z,15.52
2023-04-18T09:25:39.815Z,13.88
2023-04-18T09:28:23.404Z,13.07
2023-04-18T09:30:52.429Z,10.98
2023-04-18T09:33:28.381Z,13.10
2023-04-18T09:35:57.291Z,14.45
2023-04-18T09:38:39.808Z,13.48
2023-04-18T09:41:10.735Z,13.35
2023-04-18T09:43:39.390Z,17.50
2023-04-18T09:46:08.042Z,17.65
2023-04-18T09:48:35.313Z,14.90
2023-04-18T09:51:07.023Z,12.45
2023-04-18T09:53:35.053Z,12.95
2023-04-18T09:56:03.403Z,16.15
2023-04-18T09:58:33.128Z,13.10
2023-04-18T10:01:00.811Z,14.05
2023-04-18T10:03:34.583Z,13.27
2023-04-18T10:06:03.697Z,11.13
2023-04-18T10:08:31.987Z,11.90
2023-04-18T10:10:59.082Z,11.13
2023-04-18T10:13:28.038Z,12.05
2023-04-18T10:15:55.527Z,12.15
2023-04-18T10:18:24.385Z,17.33
2023-04-18T10:21:00.501Z,10.98
2023-04-18T10:23:39.401Z,13.43
2023-04-18T10:26:07.160Z,13.45
2023-04-18T10:28:58.572Z,12.90
2023-04-18T10:31:27.168Z,12.70
2023-04-18T10:34:04.640Z,14.13
2023-04-18T10:36:33.097Z,13.82
2023-04-18T10:39:05.831Z,11.45
2023-04-18T10:41:33.926Z,16.38
2023-04-18T10:44:22.279Z,12.18
2023-04-18T10:47:21.135Z,14.60
2023-04-18T10:49:57.073Z,20.92
2023-04-18T10:52:24.359Z,13.35
2023-04-18T10:54:58.487Z,15.57
2023-04-18T10:57:37.799Z,19.30
2023-04-18T11:00:09.484Z,15.80
2023-04-18T11:02:37.150Z,17.92
2023-04-18T11:05:05.503Z,17.48
2023-04-18T11:07:34.056Z,12.00
2023-04-18T11:10:02.838Z,11.60
2023-04-18T11:12:31.921Z,17.58
2023-04-18T11:14:59.496Z,12.93
2023-04-18T11:17:27.741Z,16.25
2023-04-18T11:20:01.159Z,14.00
2023-04-18T11:22:28.404Z,17.73
2023-04-18T11:24:58.798Z,17.58
2023-04-18T11:27:27.169Z,14.98
2023-04-18T11:29:55.082Z,18.38
2023-04-18T11:32:23.484Z,22.17
2023-04-18T11:34:54.586Z,11.95
2023-04-18T11:37:21.943Z,16.60
2023-04-18T11:39:49.027Z,19.38
2023-04-18T11:42:16.297Z,14.77
2023-04-18T11:44:47.866Z,15.27
2023-04-18T11:47:25.750Z,18.00
2023-04-18T11:49:57.369Z,13.40
2023-04-18T11:52:26.049Z,15.55
2023-04-18T11:54:53.134Z,19.92
2023-04-18T11:57:22.383Z,14.18
2023-04-18T11:59:56.469Z,19.65
2023-04-18T12:02:25.914Z,11.70
2023-04-18T12:04:56.080Z,14.23
2023-04-18T12:07:37.759Z,16.27
2023-04-18T12:10:06.918Z,19.67
2023-04-18T12:12:34.132Z,17.13
2023-04-18T12:15:05.554Z,16.30
2023-04-18T12:17:32.728Z,16.65
2023-04-18T12:20:04.872Z,19.60
2023-04-18T12:22:42.257Z,15.30
2023-04-18T12:25:27.165Z,16.88
2023-04-18T12:27:58.362Z,12.77
2023-04-18T12:30:30.332Z,19.77
2023-04-18T12:32:58.979Z,18.50
2023-04-18T12:35:26.217Z,20.08
2023-04-18T12:37:55.253Z,15.88
2023-04-18T12:40:23.107Z,13.45
2023-04-18T12:42:51.511Z,14.85
2023-04-18T12:45:20.163Z,17.63
2023-04-18T12:47:50.320Z,16.08
2023-04-18T12:50:19.623Z,17.17
2023-04-18T12:52:46.921Z,17.25
2023-04-18T12:55:14.384Z,22.83
2023-04-18T12:57:42.589Z,15.50
2023-04-18T13:00:11.229Z,20.00
2023-04-18T13:02:40.153Z,16.27
2023-04-18T13:05:10.413Z,12.82
2023-04-18T13:07:38.087Z,12.27
2023-04-18T13:10:05.952Z,13.15
2023-04-18T13:12:32.967Z,12.52
2023-04-18T13:14:59.878Z,19.50
2023-04-18T13:17:26.874Z,14.10
2023-04-18T13:19:53.866Z,11.40
2023-04-18T13:22:22.431Z,15.43
2023-04-18T13:24:49.449Z,15.18
2023-04-18T13:27:16.404Z,16.85
2023-04-18T13:29:45.680Z,17.98
2023-04-18T13:32:16.056Z,14.40
2023-04-18T13:34:44.439Z,12.10
2023-04-18T13:37:11.555Z,17.45
2023-04-18T13:39:40.333Z,18.80
2023-04-18T13:42:07.719Z,13.50
2023-04-18T13:44:35.892Z,12.45
2023-04-18T13:47:03.978Z,16.67
2023-04-18T13:49:31.275Z,15.15
2023-04-18T13:51:58.332Z,15.05
2023-04-18T13:54:26.648Z,16.60
2023-04-18T13:56:57.152Z,15.65
2023-04-18T13:59:24.296Z,18.42
2023-04-18T14:01:52.118Z,19.50
2023-04-18T14:04:20.718Z,18.23
2023-04-18T14:06:48.874Z,14.32
2023-04-18T14:09:16.747Z,16.25
2023-04-18T14:11:44.106Z,16.95
2023-04-18T14:14:12.550Z,21.30
2023-04-18T14:16:39.578Z,10.45
2023-04-18T14:19:06.748Z,22.35
2023-04-18T14:21:33.686Z,15.63
2023-04-18T14:24:00.594Z,15.70
2023-04-18T14:26:27.782Z,13.85
2023-04-18T14:28:54.730Z,11.57
2023-04-18T14:31:23.160Z,16.50
2023-04-18T14:33:50.150Z,19.50
2023-04-18T14:36:17.173Z,11.25
2023-04-18T14:38:48.359Z,13.75
2023-04-18T14:41:15.465Z,16.90
2023-04-18T14:43:43.174Z,16.60
2023-04-18T14:46:13.830Z,14.52
2023-04-18T14:48:42.474Z,15.80
2023-04-18T14:51:09.400Z,10.60
2023-04-18T14:53:36.536Z,10.20
2023-04-18T14:56:03.729Z,12.35
2023-04-18T14:58:30.688Z,13.48
2023-04-18T15:00:57.643Z,9.52
2023-04-18T15:03:25.028Z,15.35
2023-04-18T15:05:53.833Z,9.57
2023-04-18T15:08:21.273Z,14.30
2023-04-18T15:10:48.198Z,9.43
2023-04-18T15:13:15.990Z,15.20
2023-04-18T15:15:43.060Z,11.90
2023-04-18T15:18:11.236Z,16.23
2023-04-18T15:20:39.554Z,15.40
2023-04-18T15:23:09.786Z,16.38
2023-04-18T15:25:36.827Z,10.23
2023-04-18T15:28:04.043Z,8.52
2023-04-18T15:30:31.049Z,11.80
2023-04-18T15:32:58.653Z,12.45
2023-04-18T15:35:25.887Z,17.27
2023-04-18T15:37:54.050Z,13.45
2023-04-18T15:40:22.403Z,19.33
2023-04-18T15:42:50.970Z,12.85
2023-04-18T15:45:18.542Z,11.18
2023-04-18T15:47:45.585Z,11.93
2023-04-18T15:50:12.824Z,13.57
2023-04-18T15:52:41.507Z,14.50
2023-04-18T15:55:10.785Z,19.40
2023-04-18T15:57:39.275Z,11.07
2023-04-18T16:00:11.814Z,14.60
2023-04-18T16:02:38.924Z,12.98
2023-04-18T16:05:07.463Z,14.45
2023-04-18T16:07:34.549Z,19.05
2023-04-18T16:10:03.534Z,20.13
2023-04-18T16:12:30.549Z,17.33
2023-04-18T16:14:59.061Z,17.25
2023-04-18T16:17:25.980Z,19.33
2023-04-18T16:19:54.244Z,17.17
2023-04-18T16:22:21.916Z,14.48
2023-04-18T16:24:48.835Z,20.52
2023-04-18T16:27:16.937Z,24.70
2023-04-18T16:29:49.695Z,26.90
2023-04-18T16:32:18.028Z,52.15
2023-04-18T16:34:45.059Z,36.83
2023-04-18T16:37:15.074Z,23.95
2023-04-18T16:39:42.522Z,22.58
2023-04-18T16:42:09.468Z,22.98
2023-04-18T16:44:36.364Z,17.65
2023-04-18T16:47:05.144Z,14.38
2023-04-18T16:49:33.966Z,15.48
2023-04-18T16:52:01.866Z,15.05
2023-04-18T16:54:28.943Z,14.65
2023-04-18T16:56:55.853Z,18.25
2023-04-18T16:59:23.178Z,22.73
2023-04-18T17:01:50.252Z,17.25
2023-04-18T17:04:17.503Z,15.02
2023-04-18T17:06:46.630Z,16.10
2023-04-18T17:09:14.701Z,24.17
2023-04-18T17:11:41.986Z,20.60
2023-04-18T17:14:09.125Z,26.13
2023-04-18T17:16:40.686Z,23.23
2023-04-18T17:19:08.596Z,18.60
2023-04-18T17:21:36.530Z,20.70
2023-04-18T17:24:06.958Z,17.60
2023-04-18T17:26:35.011Z,20.30
2023-04-18T17:29:04.147Z,18.98
2023-04-18T17:31:31.551Z,19.48
2023-04-18T17:33:58.958Z,16.95
2023-04-18T17:36:26.362Z,11.65
2023-04-18T17:38:53.319Z,14.98
2023-04-18T17:41:22.072Z,14.85
2023-04-18T17:43:50.987Z,13.02
2023-04-18T17:46:18.243Z,14.90
2023-04-18T17:48:45.385Z,14.27
2023-04-18T17:51:12.646Z,15.55
2023-04-18T17:53:39.562Z,10.27
2023-04-18T17:56:06.545Z,15.70
2023-04-18T17:58:34.903Z,12.13
2023-04-18T18:01:01.846Z,18.55
2023-04-18T18:03:29.052Z,18.90
2023-04-18T18:05:56.173Z,18.13
2023-04-18T18:08:23.290Z,22.67
2023-04-18T18:10:53.263Z,22.90
2023-04-18T18:13:20.292Z,21.65
2023-04-18T18:15:48.627Z,24.65
2023-04-18T18:18:27.183Z,16.92
2023-04-18T18:20:54.656Z,22.33
2023-04-18T18:23:22.068Z,14.75
2023-04-18T18:25:50.300Z,16.70
2023-04-18T18:28:17.589Z,19.50
2023-04-18T18:30:44.734Z,19.88
2023-04-18T18:33:13.901Z,17.95
2023-04-18T18:35:40.840Z,16.95
2023-04-18T18:38:07.755Z,19.83
2023-04-18T18:40:34.762Z,15.55
2023-04-18T18:43:01.661Z,19.75
2023-04-18T18:45:28.838Z,22.70
2023-04-18T18:47:55.796Z,21.08
2023-04-18T18:50:24.178Z,22.00
2023-04-18T18:52:51.179Z,25.30
2023-04-18T18:55:18.735Z,23.73
2023-04-18T18:57:45.658Z,20.58
2023-04-18T19:00:13.538Z,19.05
2023-04-18T19:02:40.765Z,23.75
2023-04-18T19:05:12.534Z,19.50
2023-04-18T19:07:43.711Z,22.73
2023-04-18T19:10:11.055Z,15.48
2023-04-18T19:12:38.195Z,20.83
2023-04-18T19:15:06.483Z,19.52
2023-04-18T19:17:33.659Z,16.13
2023-04-18T19:20:01.612Z,16.20
2023-04-18T19:22:28.888Z,19.98
2023-04-18T19:24:58.456Z,20.77
2023-04-18T19:27:25.905Z,22.88
2023-04-18T19:29:52.851Z,20.77
2023-04-18T19:32:20.577Z,17.98
2023-04-18T19:34:47.656Z,18.63
2023-04-18T19:37:14.546Z,25.40
2023-04-18T19:39:41.458Z,24.10
2023-04-18T19:42:10.377Z,21.27
2023-04-18T19:44:37.279Z,19.30
2023-04-18T19:47:04.242Z,19.45
2023-04-18T19:49:31.207Z,20.80
2023-04-18T19:51:58.140Z,19.67
2023-04-18T19:54:25.164Z,18.88
2023-04-18T19:56:52.193Z,22.55
2023-04-18T19:59:20.616Z,20.05
2023-04-18T20:01:47.654Z,16.75
2023-04-18T20:04:14.891Z,13.40
2023-04-18T20:06:42.647Z,16.30
2023-04-18T20:09:15.425Z,8.95
2023-04-18T20:11:43.143Z,21.17
2023-04-18T20:14:10.613Z,16.83
2023-04-18T20:16:39.193Z,19.77
2023-04-18T20:19:06.175Z,14.52
2023-04-18T20:21:33.140Z,24.88
2023-04-18T20:24:00.074Z,17.17
2023-04-18T20:26:27.069Z,15.70
2023-04-18T20:28:54.056Z,14.63
2023-04-18T20:31:21.139Z,17.42
2023-04-18T20:33:49.488Z,25.73
2023-04-18T20:36:19.547Z,19.95
2023-04-18T20:38:47.179Z,20.98
2023-04-18T20:41:14.821Z,21.40
2023-04-18T20:43:42.980Z,14.13
2023-04-18T20:46:12.861Z,20.58
2023-04-18T20:48:40.253Z,13.80
2023-04-18T20:51:08.948Z,16.33
2023-04-18T20:53:35.983Z,12.68
2023-04-18T20:56:03.183Z,18.92
2023-04-18T20:58:30.634Z,18.70
2023-04-18T21:00:57.604Z,23.17
2023-04-18T21:03:24.920Z,18.65
2023-04-18T21:05:52.767Z,19.23
2023-04-18T21:08:21.571Z,17.25
2023-04-18T21:10:48.461Z,18.33
2023-04-18T21:13:15.715Z,19.02
2023-04-18T21:15:43.151Z,14.25
2023-04-18T21:18:10.717Z,21.58
2023-04-18T21:20:38.152Z,13.60
2023-04-18T21:23:05.122Z,25.35
2023-04-18T21:25:33.707Z,18.95
2023-04-18T21:28:00.667Z,23.58
2023-04-18T21:30:27.590Z,21.15
2023-04-18T21:32:54.623Z,28.67
2023-04-18T21:35:23.480Z,13.27
2023-04-18T21:37:51.806Z,18.88
2023-04-18T21:40:18.935Z,25.63
2023-04-18T21:42:49.360Z,21.15
2023-04-18T21:45:17.196Z,22.75
2023-04-18T21:47:44.557Z,17.98
2023-04-18T21:50:11.809Z,21.42
2023-04-18T21:52:38.739Z,18.10
2023-04-18T21:55:06.544Z,24.25
2023-04-18T21:57:33.501Z,17.63
2023-04-18T22:00:01.731Z,26.13
2023-04-18T22:02:36.064Z,25.23
2023-04-18T22:05:03.250Z,21.15
2023-04-18T22:07:31.108Z,19.92
2023-04-18T22:09:59.845Z,18.02
2023-04-18T22:12:27.113Z,20.05
2023-04-18T22:14:54.550Z,23.23
2023-04-18T22:17:22.880Z,22.17
2023-04-18T22:19:50.449Z,19.50
2023-04-18T22:22:17.385Z,21.27
2023-04-18T22:24:47.351Z,15.88
2023-04-18T22:27:15.337Z,18.77
2023-04-18T22:29:42.259Z,15.98
2023-04-18T22:32:09.224Z,17.23
2023-04-18T22:34:37.564Z,19.02
2023-04-18T22:37:04.681Z,17.85
2023-04-18T22:39:31.612Z,19.55
2023-04-18T22:41:58.561Z,19.10
2023-04-18T22:44:25.474Z,20.85
2023-04-18T22:46:54.695Z,16.67
2023-04-18T22:49:22.449Z,20.48
2023-04-18T22:51:54.362Z,18.73
2023-04-18T22:54:21.532Z,21.73
2023-04-18T22:56:49.578Z,19.45
2023-04-18T22:59:16.964Z,17.25
2023-04-18T23:01:44.032Z,17.27
2023-04-18T23:04:11.344Z,17.23
2023-04-18T23:06:38.857Z,22.38
2023-04-18T23:09:09.623Z,15.45
2023-04-18T23:11:36.521Z,15.73
2023-04-18T23:14:03.539Z,14.95
2023-04-18T23:16:30.541Z,16.38
2023-04-18T23:18:57.544Z,15.82
2023-04-18T23:21:24.597Z,18.58
2023-04-18T23:23:51.491Z,18.73
2023-04-18T23:26:20.728Z,23.15
2023-04-18T23:28:47.662Z,15.63
2023-04-18T23:31:14.848Z,22.23
2023-04-18T23:33:41.781Z,15.38
2023-04-18T23:36:09.222Z,18.55
2023-04-18T23:38:37.309Z,15.93
2023-04-18T23:41:04.516Z,16.13
2023-04-18T23:43:33.140Z,16.40
2023-04-18T23:46:02.710Z,13.82
2023-04-18T23:48:29.685Z,16.02
2023-04-18T23:50:56.588Z,13.98
2023-04-18T23:53:24.798Z,16.00
2023-04-18T23:55:53.649Z,20.63
2023-04-18T23:58:20.779Z,13.63
